sensor_id;sensor_type;location;lat;lon;timestamp;temperature;humidity
14473;DHT22;7322;50.872;4.386;2023-04-25T00:00:06;19.90;99.90
14473;DHT22;7322;50.872;4.386;2023-04-25T00:02:34;19.80;99.90
14473;DHT22;7322;50.872;4.386;2023-04-25T00:05:01;19.80;99.90
14473;DHT22;7322;50.872;4.386;2023-04-25T00:07:30;19.80;99.90
14473;DHT22;7322;50.872;4.386;2023-04-25T00:09:58;19.80;99.90
14473;DHT22;7322;50.872;4.386;2023-04-25T00:12:26;19.80;99.90
14473;DHT22;7322;50.872;4.386;2023-04-25T00:14:54;19.80;99.90
14473;DHT22;7322;50.872;4.386;2023-04-25T00:17:22;19.90;99.90
14473;DHT22;7322;50.872;4.386;2023-04-25T00:19:52;19.80;99.90
14473;DHT22;7322;50.872;4.386;2023-04-25T00:22:19;19.80;99.90
14473;DHT22;7322;50.872;4.386;2023-04-25T00:24:46;19.80;99.90
14473;DHT22;7322;50.872;4.386;2023-04-25T00:27:13;19.80;99.90
14473;DHT22;7322;50.872;4.386;2023-04-25T00:29:41;19.80;99.90
14473;DHT22;7322;50.872;4.386;2023-04-25T00:32:08;19.80;99.90
14473;DHT22;7322;50.872;4.386;2023-04-25T00:34:35;19.80;99.90
14473;DHT22;7322;50.872;4.386;2023-04-25T00:37:02;19.80;99.90
14473;DHT22;7322;50.872;4.386;2023-04-25T00:39:32;19.80;99.90
14473;DHT22;7322;50.872;4.386;2023-04-25T00:41:59;19.80;99.90
14473;DHT22;7322;50.872;4.386;2023-04-25T00:44:27;19.80;99.90
14473;DHT22;7322;50.872;4.386;2023-04-25T00:46:57;19.80;99.90
14473;DHT22;7322;50.872;4.386;2023-04-25T00:49:24;19.80;99.90
14473;DHT22;7322;50.872;4.386;2023-04-25T00:51:51;19.80;99.90
14473;DHT22;7322;50.872;4.386;2023-04-25T00:54:18;19.80;99.90
14473;DHT22;7322;50.872;4.386;2023-04-25T00:56:45;19.80;99.90
14473;DHT22;7322;50.872;4.386;2023-04-25T00:59:15;19.80;99.90
14473;DHT22;7322;50.872;4.386;2023-04-25T01:01:42;19.80;99.90
14473;DHT22;7322;50.872;4.386;2023-04-25T01:04:12;19.80;99.90
14473;DHT22;7322;50.872;4.386;2023-04-25T01:06:40;19.80;99.90
14473;DHT22;7322;50.872;4.386;2023-04-25T01:09:07;19.70;99.90
14473;DHT22;7322;50.872;4.386;2023-04-25T01:11:35;19.80;99.90
14473;DHT22;7322;50.872;4.386;2023-04-25T01:14:02;19.80;99.90
14473;DHT22;7322;50.872;4.386;2023-04-25T01:16:29;19.80;99.90
14473;DHT22;7322;50.872;4.386;2023-04-25T01:18:56;19.80;99.90
14473;DHT22;7322;50.872;4.386;2023-04-25T01:21:28;19.80;99.90
14473;DHT22;7322;50.872;4.386;2023-04-25T01:23:56;19.80;99.90
14473;DHT22;7322;50.872;4.386;2023-04-25T01:26:26;19.80;99.90
14473;DHT22;7322;50.872;4.386;2023-04-25T01:28:53;19.70;99.90
14473;DHT22;7322;50.872;4.386;2023-04-25T01:31:21;19.80;99.90
14473;DHT22;7322;50.872;4.386;2023-04-25T01:33:48;19.80;99.90
14473;DHT22;7322;50.872;4.386;2023-04-25T01:36:15;19.80;99.90
14473;DHT22;7322;50.872;4.386;2023-04-25T01:38:44;19.80;99.90
14473;DHT22;7322;50.872;4.386;2023-04-25T01:41:13;19.80;99.90
14473;DHT22;7322;50.872;4.386;2023-04-25T01:43:40;19.80;99.90
14473;DHT22;7322;50.872;4.386;2023-04-25T01:46:07;19.70;99.90
14473;DHT22;7322;50.872;4.386;2023-04-25T01:48:34;19.70;99.90
14473;DHT22;7322;50.872;4.386;2023-04-25T01:51:02;19.70;99.90
14473;DHT22;7322;50.872;4.386;2023-04-25T01:53:31;19.70;99.90
14473;DHT22;7322;50.872;4.386;2023-04-25T01:56:04;19.70;99.90
14473;DHT22;7322;50.872;4.386;2023-04-25T01:58:32;19.70;99.90
14473;DHT22;7322;50.872;4.386;2023-04-25T02:01:00;19.70;99.90
14473;DHT22;7322;50.872;4.386;2023-04-25T02:03:27;19.70;99.90
14473;DHT22;7322;50.872;4.386;2023-04-25T02:05:54;19.70;99.90
14473;DHT22;7322;50.872;4.386;2023-04-25T02:08:21;19.70;99.90
14473;DHT22;7322;50.872;4.386;2023-04-25T02:10:48;19.70;99.90
14473;DHT22;7322;50.872;4.386;2023-04-25T02:13:17;19.70;99.90
14473;DHT22;7322;50.872;4.386;2023-04-25T02:15:44;19.70;99.90
14473;DHT22;7322;50.872;4.386;2023-04-25T02:18:11;19.70;99.90
14473;DHT22;7322;50.872;4.386;2023-04-25T02:20:38;19.70;99.90
14473;DHT22;7322;50.872;4.386;2023-04-25T02:23:05;19.70;99.90
14473;DHT22;7322;50.872;4.386;2023-04-25T02:25:32;19.70;99.90
14473;DHT22;7322;50.872;4.386;2023-04-25T02:27:59;19.70;99.90
14473;DHT22;7322;50.872;4.386;2023-04-25T02:30:29;19.70;99.90
14473;DHT22;7322;50.872;4.386;2023-04-25T02:32:56;19.60;99.90
14473;DHT22;7322;50.872;4.386;2023-04-25T02:35:23;19.60;99.90
14473;DHT22;7322;50.872;4.386;2023-04-25T02:37:52;19.60;99.90
14473;DHT22;7322;50.872;4.386;2023-04-25T02:40:19;19.70;99.90
14473;DHT22;7322;50.872;4.386;2023-04-25T02:42:46;19.60;99.90
14473;DHT22;7322;50.872;4.386;2023-04-25T02:45:13;19.70;99.90
14473;DHT22;7322;50.872;4.386;2023-04-25T02:47:41;19.60;99.90
14473;DHT22;7322;50.872;4.386;2023-04-25T02:50:08;19.60;99.90
14473;DHT22;7322;50.872;4.386;2023-04-25T02:52:36;19.60;99.90
14473;DHT22;7322;50.872;4.386;2023-04-25T02:55:03;19.60;99.90
14473;DHT22;7322;50.872;4.386;2023-04-25T02:57:30;19.60;99.90
14473;DHT22;7322;50.872;4.386;2023-04-25T02:59:59;19.60;99.90
14473;DHT22;7322;50.872;4.386;2023-04-25T03:02:26;19.70;99.90
14473;DHT22;7322;50.872;4.386;2023-04-25T03:04:55;19.70;99.90
14473;DHT22;7322;50.872;4.386;2023-04-25T03:07:22;19.60;99.90
14473;DHT22;7322;50.872;4.386;2023-04-25T03:09:49;19.60;99.90
14473;DHT22;7322;50.872;4.386;2023-04-25T03:12:16;19.60;99.90
14473;DHT22;7322;50.872;4.386;2023-04-25T03:14:43;19.70;99.90
14473;DHT22;7322;50.872;4.386;2023-04-25T03:17:10;19.60;99.90
14473;DHT22;7322;50.872;4.386;2023-04-25T03:19:37;19.60;99.90
14473;DHT22;7322;50.872;4.386;2023-04-25T03:22:09;19.60;99.90
14473;DHT22;7322;50.872;4.386;2023-04-25T03:24:36;19.60;99.90
14473;DHT22;7322;50.872;4.386;2023-04-25T03:27:03;19.60;99.90
14473;DHT22;7322;50.872;4.386;2023-04-25T03:29:30;19.60;99.90
14473;DHT22;7322;50.872;4.386;2023-04-25T03:31:59;19.60;99.90
14473;DHT22;7322;50.872;4.386;2023-04-25T03:34:26;19.60;99.90
14473;DHT22;7322;50.872;4.386;2023-04-25T03:36:53;19.60;99.90
14473;DHT22;7322;50.872;4.386;2023-04-25T03:39:22;19.60;99.90
14473;DHT22;7322;50.872;4.386;2023-04-25T03:41:49;19.60;99.90
14473;DHT22;7322;50.872;4.386;2023-04-25T03:44:16;19.60;99.90
14473;DHT22;7322;50.872;4.386;2023-04-25T03:46:43;19.50;99.90
14473;DHT22;7322;50.872;4.386;2023-04-25T03:49:10;19.50;99.90
14473;DHT22;7322;50.872;4.386;2023-04-25T03:51:37;19.50;99.90
14473;DHT22;7322;50.872;4.386;2023-04-25T03:54:04;19.50;99.90
14473;DHT22;7322;50.872;4.386;2023-04-25T03:56:32;19.50;99.90
14473;DHT22;7322;50.872;4.386;2023-04-25T03:58:59;19.50;99.90
14473;DHT22;7322;50.872;4.386;2023-04-25T04:01:27;19.60;99.90
14473;DHT22;7322;50.872;4.386;2023-04-25T04:03:54;19.50;99.90
14473;DHT22;7322;50.872;4.386;2023-04-25T04:06:21;19.50;99.90
14473;DHT22;7322;50.872;4.386;2023-04-25T04:08:48;19.50;99.90
14473;DHT22;7322;50.872;4.386;2023-04-25T04:11:15;19.50;99.90
14473;DHT22;7322;50.872;4.386;2023-04-25T04:13:44;19.50;99.90
14473;DHT22;7322;50.872;4.386;2023-04-25T04:16:11;19.60;99.90
14473;DHT22;7322;50.872;4.386;2023-04-25T04:18:38;19.50;99.90
14473;DHT22;7322;50.872;4.386;2023-04-25T04:21:05;19.50;99.90
14473;DHT22;7322;50.872;4.386;2023-04-25T04:23:31;19.60;99.90
14473;DHT22;7322;50.872;4.386;2023-04-25T04:25:59;19.50;99.90
14473;DHT22;7322;50.872;4.386;2023-04-25T04:28:26;19.60;99.90
14473;DHT22;7322;50.872;4.386;2023-04-25T04:30:54;19.60;99.90
14473;DHT22;7322;50.872;4.386;2023-04-25T04:33:21;19.50;99.90
14473;DHT22;7322;50.872;4.386;2023-04-25T04:35:50;19.50;99.90
14473;DHT22;7322;50.872;4.386;2023-04-25T04:38:17;19.50;99.90
14473;DHT22;7322;50.872;4.386;2023-04-25T04:40:45;19.50;99.90
14473;DHT22;7322;50.872;4.386;2023-04-25T04:43:13;19.50;99.90
14473;DHT22;7322;50.872;4.386;2023-04-25T04:45:42;19.50;99.90
14473;DHT22;7322;50.872;4.386;2023-04-25T04:48:11;19.60;99.90
14473;DHT22;7322;50.872;4.386;2023-04-25T04:50:40;19.50;99.90
14473;DHT22;7322;50.872;4.386;2023-04-25T04:53:07;19.50;99.90
14473;DHT22;7322;50.872;4.386;2023-04-25T04:55:34;19.50;99.90
14473;DHT22;7322;50.872;4.386;2023-04-25T04:58:02;19.50;99.90
14473;DHT22;7322;50.872;4.386;2023-04-25T05:00:30;19.50;99.90
14473;DHT22;7322;50.872;4.386;2023-04-25T05:02:57;19.50;99.90
14473;DHT22;7322;50.872;4.386;2023-04-25T05:05:25;19.50;99.90
14473;DHT22;7322;50.872;4.386;2023-04-25T05:07:52;19.60;99.90
14473;DHT22;7322;50.872;4.386;2023-04-25T05:10:19;19.70;99.90
14473;DHT22;7322;50.872;4.386;2023-04-25T05:12:46;19.80;99.90
14473;DHT22;7322;50.872;4.386;2023-04-25T05:15:14;19.90;99.90
14473;DHT22;7322;50.872;4.386;2023-04-25T05:17:41;20.10;99.90
14473;DHT22;7322;50.872;4.386;2023-04-25T05:20:08;20.10;99.90
14473;DHT22;7322;50.872;4.386;2023-04-25T05:22:37;20.20;99.90
14473;DHT22;7322;50.872;4.386;2023-04-25T05:25:05;20.30;99.90
14473;DHT22;7322;50.872;4.386;2023-04-25T05:27:32;20.40;99.90
14473;DHT22;7322;50.872;4.386;2023-04-25T05:29:59;20.50;99.90
14473;DHT22;7322;50.872;4.386;2023-04-25T05:32:26;20.50;99.90
14473;DHT22;7322;50.872;4.386;2023-04-25T05:34:53;20.60;99.90
14473;DHT22;7322;50.872;4.386;2023-04-25T05:37:20;20.60;99.90
14473;DHT22;7322;50.872;4.386;2023-04-25T05:39:48;20.60;99.90
14473;DHT22;7322;50.872;4.386;2023-04-25T05:42:15;20.70;99.90
14473;DHT22;7322;50.872;4.386;2023-04-25T05:44:42;20.70;99.90
14473;DHT22;7322;50.872;4.386;2023-04-25T05:47:09;20.70;99.90
14473;DHT22;7322;50.872;4.386;2023-04-25T05:49:36;20.80;99.90
14473;DHT22;7322;50.872;4.386;2023-04-25T05:52:03;20.70;99.90
14473;DHT22;7322;50.872;4.386;2023-04-25T05:54:30;20.70;99.90
14473;DHT22;7322;50.872;4.386;2023-04-25T05:56:59;20.80;99.90
14473;DHT22;7322;50.872;4.386;2023-04-25T05:59:27;20.80;99.90
14473;DHT22;7322;50.872;4.386;2023-04-25T06:01:56;20.80;99.90
14473;DHT22;7322;50.872;4.386;2023-04-25T06:04:24;20.80;99.90
14473;DHT22;7322;50.872;4.386;2023-04-25T06:06:51;20.70;99.90
14473;DHT22;7322;50.872;4.386;2023-04-25T06:09:19;20.80;99.90
14473;DHT22;7322;50.872;4.386;2023-04-25T06:11:50;20.70;99.90
14473;DHT22;7322;50.872;4.386;2023-04-25T06:14:24;20.80;99.90
14473;DHT22;7322;50.872;4.386;2023-04-25T06:16:52;20.80;99.90
14473;DHT22;7322;50.872;4.386;2023-04-25T06:19:19;20.80;99.90
14473;DHT22;7322;50.872;4.386;2023-04-25T06:21:47;20.80;99.90
14473;DHT22;7322;50.872;4.386;2023-04-25T06:24:14;20.80;99.90
14473;DHT22;7322;50.872;4.386;2023-04-25T06:26:41;20.80;99.90
14473;DHT22;7322;50.872;4.386;2023-04-25T06:29:08;20.90;99.90
14473;DHT22;7322;50.872;4.386;2023-04-25T06:31:36;20.80;99.90
14473;DHT22;7322;50.872;4.386;2023-04-25T06:34:03;20.80;99.90
14473;DHT22;7322;50.872;4.386;2023-04-25T06:36:30;20.80;99.90
14473;DHT22;7322;50.872;4.386;2023-04-25T06:38:57;20.80;99.90
14473;DHT22;7322;50.872;4.386;2023-04-25T06:41:24;20.80;99.90
14473;DHT22;7322;50.872;4.386;2023-04-25T06:43:51;20.80;99.90
14473;DHT22;7322;50.872;4.386;2023-04-25T06:46:19;20.70;99.90
14473;DHT22;7322;50.872;4.386;2023-04-25T06:48:48;20.70;99.90
14473;DHT22;7322;50.872;4.386;2023-04-25T06:51:15;20.70;99.90
14473;DHT22;7322;50.872;4.386;2023-04-25T06:53:57;20.60;99.90
14473;DHT22;7322;50.872;4.386;2023-04-25T06:56:24;20.70;99.90
14473;DHT22;7322;50.872;4.386;2023-04-25T06:58:57;20.60;99.90
14473;DHT22;7322;50.872;4.386;2023-04-25T07:01:30;20.60;99.90
14473;DHT22;7322;50.872;4.386;2023-04-25T07:04:05;20.50;99.90
14473;DHT22;7322;50.872;4.386;2023-04-25T07:06:40;20.50;99.90
14473;DHT22;7322;50.872;4.386;2023-04-25T07:09:09;20.50;99.90
14473;DHT22;7322;50.872;4.386;2023-04-25T07:11:43;20.40;99.90
14473;DHT22;7322;50.872;4.386;2023-04-25T07:14:18;20.30;99.90
14473;DHT22;7322;50.872;4.386;2023-04-25T07:16:45;20.20;99.90
14473;DHT22;7322;50.872;4.386;2023-04-25T07:19:18;20.20;99.90
14473;DHT22;7322;50.872;4.386;2023-04-25T07:21:48;20.20;99.90
14473;DHT22;7322;50.872;4.386;2023-04-25T07:24:15;20.10;99.90
14473;DHT22;7322;50.872;4.386;2023-04-25T07:26:44;20.10;99.90
14473;DHT22;7322;50.872;4.386;2023-04-25T07:29:15;20.00;99.90
14473;DHT22;7322;50.872;4.386;2023-04-25T07:31:43;20.00;99.90
14473;DHT22;7322;50.872;4.386;2023-04-25T07:34:15;20.00;99.90
14473;DHT22;7322;50.872;4.386;2023-04-25T07:36:59;19.90;99.90
14473;DHT22;7322;50.872;4.386;2023-04-25T07:39:44;20.00;99.90
14473;DHT22;7322;50.872;4.386;2023-04-25T07:42:13;20.00;99.90
14473;DHT22;7322;50.872;4.386;2023-04-25T07:44:40;20.00;99.90
14473;DHT22;7322;50.872;4.386;2023-04-25T07:47:08;20.00;99.90
14473;DHT22;7322;50.872;4.386;2023-04-25T07:49:37;20.00;99.90
14473;DHT22;7322;50.872;4.386;2023-04-25T07:52:05;20.00;99.90
14473;DHT22;7322;50.872;4.386;2023-04-25T07:54:34;20.00;99.90
14473;DHT22;7322;50.872;4.386;2023-04-25T07:57:09;20.10;99.90
14473;DHT22;7322;50.872;4.386;2023-04-25T08:00:04;20.10;99.90
14473;DHT22;7322;50.872;4.386;2023-04-25T08:02:45;20.10;99.90
14473;DHT22;7322;50.872;4.386;2023-04-25T08:05:14;20.10;99.90
14473;DHT22;7322;50.872;4.386;2023-04-25T08:07:50;20.00;99.90
14473;DHT22;7322;50.872;4.386;2023-04-25T08:10:50;20.10;99.90
14473;DHT22;7322;50.872;4.386;2023-04-25T08:13:27;20.10;99.90
14473;DHT22;7322;50.872;4.386;2023-04-25T08:16:01;20.10;99.90
14473;DHT22;7322;50.872;4.386;2023-04-25T08:18:36;20.10;99.90
14473;DHT22;7322;50.872;4.386;2023-04-25T08:21:27;20.10;99.90
14473;DHT22;7322;50.872;4.386;2023-04-25T08:24:16;20.10;99.90
14473;DHT22;7322;50.872;4.386;2023-04-25T08:26:43;20.10;99.90
14473;DHT22;7322;50.872;4.386;2023-04-25T08:29:19;20.10;99.90
14473;DHT22;7322;50.872;4.386;2023-04-25T08:31:49;20.20;99.90
14473;DHT22;7322;50.872;4.386;2023-04-25T08:34:19;20.20;99.90
14473;DHT22;7322;50.872;4.386;2023-04-25T08:36:48;20.30;99.90
14473;DHT22;7322;50.872;4.386;2023-04-25T08:39:15;20.40;99.90
14473;DHT22;7322;50.872;4.386;2023-04-25T08:41:56;20.40;99.90
14473;DHT22;7322;50.872;4.386;2023-04-25T08:44:24;20.50;99.90
14473;DHT22;7322;50.872;4.386;2023-04-25T08:46:52;20.50;99.90
14473;DHT22;7322;50.872;4.386;2023-04-25T08:49:23;20.50;99.90
14473;DHT22;7322;50.872;4.386;2023-04-25T08:51:53;20.60;99.90
14473;DHT22;7322;50.872;4.386;2023-04-25T08:54:27;20.60;99.90
14473;DHT22;7322;50.872;4.386;2023-04-25T08:57:03;20.70;99.90
14473;DHT22;7322;50.872;4.386;2023-04-25T08:59:32;20.60;99.90
14473;DHT22;7322;50.872;4.386;2023-04-25T09:02:02;20.60;99.90
14473;DHT22;7322;50.872;4.386;2023-04-25T09:04:35;20.70;99.90
14473;DHT22;7322;50.872;4.386;2023-04-25T09:07:04;20.70;99.90
14473;DHT22;7322;50.872;4.386;2023-04-25T09:09:33;20.70;99.90
14473;DHT22;7322;50.872;4.386;2023-04-25T09:12:01;20.70;99.90
14473;DHT22;7322;50.872;4.386;2023-04-25T09:14:28;20.70;99.90
14473;DHT22;7322;50.872;4.386;2023-04-25T09:17:02;20.60;99.90
14473;DHT22;7322;50.872;4.386;2023-04-25T09:19:32;20.60;99.90
14473;DHT22;7322;50.872;4.386;2023-04-25T09:22:03;20.70;99.90
14473;DHT22;7322;50.872;4.386;2023-04-25T09:24:32;20.70;99.90
14473;DHT22;7322;50.872;4.386;2023-04-25T09:27:04;20.80;99.90
14473;DHT22;7322;50.872;4.386;2023-04-25T09:29:32;20.80;99.90
14473;DHT22;7322;50.872;4.386;2023-04-25T09:32:11;20.80;99.90
14473;DHT22;7322;50.872;4.386;2023-04-25T09:34:48;20.90;99.90
14473;DHT22;7322;50.872;4.386;2023-04-25T09:37:21;20.90;99.90
14473;DHT22;7322;50.872;4.386;2023-04-25T09:40:25;20.90;99.90
14473;DHT22;7322;50.872;4.386;2023-04-25T09:43:20;20.90;99.90
14473;DHT22;7322;50.872;4.386;2023-04-25T09:45:54;20.80;99.90
14473;DHT22;7322;50.872;4.386;2023-04-25T09:48:26;20.80;99.90
14473;DHT22;7322;50.872;4.386;2023-04-25T09:51:07;20.80;99.90
14473;DHT22;7322;50.872;4.386;2023-04-25T09:53:47;20.80;99.90
14473;DHT22;7322;50.872;4.386;2023-04-25T09:56:35;20.80;99.90
14473;DHT22;7322;50.872;4.386;2023-04-25T09:59:03;20.90;99.90
14473;DHT22;7322;50.872;4.386;2023-04-25T10:01:39;20.90;99.90
14473;DHT22;7322;50.872;4.386;2023-04-25T10:04:10;20.90;99.90
14473;DHT22;7322;50.872;4.386;2023-04-25T10:06:40;20.90;99.90
14473;DHT22;7322;50.872;4.386;2023-04-25T10:09:12;20.90;99.90
14473;DHT22;7322;50.872;4.386;2023-04-25T10:11:41;20.90;99.90
14473;DHT22;7322;50.872;4.386;2023-04-25T10:14:11;20.90;99.90
14473;DHT22;7322;50.872;4.386;2023-04-25T10:16:45;20.90;99.90
14473;DHT22;7322;50.872;4.386;2023-04-25T10:19:15;20.90;99.90
14473;DHT22;7322;50.872;4.386;2023-04-25T10:21:48;20.90;99.90
14473;DHT22;7322;50.872;4.386;2023-04-25T10:24:25;20.90;99.90
14473;DHT22;7322;50.872;4.386;2023-04-25T10:27:09;20.90;99.90
14473;DHT22;7322;50.872;4.386;2023-04-25T10:29:41;21.00;99.90
14473;DHT22;7322;50.872;4.386;2023-04-25T10:32:11;21.00;99.90
14473;DHT22;7322;50.872;4.386;2023-04-25T10:34:39;21.00;99.90
14473;DHT22;7322;50.872;4.386;2023-04-25T10:37:14;21.00;99.90
14473;DHT22;7322;50.872;4.386;2023-04-25T10:39:43;21.00;99.90
14473;DHT22;7322;50.872;4.386;2023-04-25T10:42:12;21.00;99.90
14473;DHT22;7322;50.872;4.386;2023-04-25T10:44:40;21.00;99.90
14473;DHT22;7322;50.872;4.386;2023-04-25T10:47:08;21.10;99.90
14473;DHT22;7322;50.872;4.386;2023-04-25T10:49:44;21.00;99.90
14473;DHT22;7322;50.872;4.386;2023-04-25T10:52:18;20.90;99.90
14473;DHT22;7322;50.872;4.386;2023-04-25T10:55:12;20.90;99.90
14473;DHT22;7322;50.872;4.386;2023-04-25T10:57:40;20.90;99.90
14473;DHT22;7322;50.872;4.386;2023-04-25T11:00:14;20.80;99.90
14473;DHT22;7322;50.872;4.386;2023-04-25T11:02:44;20.80;99.90
14473;DHT22;7322;50.872;4.386;2023-04-25T11:05:20;20.80;99.90
14473;DHT22;7322;50.872;4.386;2023-04-25T11:07:51;20.80;99.90
14473;DHT22;7322;50.872;4.386;2023-04-25T11:10:20;20.80;99.90
14473;DHT22;7322;50.872;4.386;2023-04-25T11:12:46;20.80;99.90
14473;DHT22;7322;50.872;4.386;2023-04-25T11:15:14;20.80;99.90
14473;DHT22;7322;50.872;4.386;2023-04-25T11:17:41;20.80;99.90
14473;DHT22;7322;50.872;4.386;2023-04-25T11:20:10;20.90;99.90
14473;DHT22;7322;50.872;4.386;2023-04-25T11:22:39;21.10;99.90
14473;DHT22;7322;50.872;4.386;2023-04-25T11:25:10;21.10;99.90
14473;DHT22;7322;50.872;4.386;2023-04-25T11:27:51;21.20;99.90
14473;DHT22;7322;50.872;4.386;2023-04-25T11:30:19;21.30;99.90
14473;DHT22;7322;50.872;4.386;2023-04-25T11:32:47;21.30;99.90
14473;DHT22;7322;50.872;4.386;2023-04-25T11:35:14;21.30;99.90
14473;DHT22;7322;50.872;4.386;2023-04-25T11:37:42;21.30;99.90
14473;DHT22;7322;50.872;4.386;2023-04-25T11:40:11;21.30;99.90
14473;DHT22;7322;50.872;4.386;2023-04-25T11:42:39;21.40;99.90
14473;DHT22;7322;50.872;4.386;2023-04-25T11:45:10;21.40;99.90
14473;DHT22;7322;50.872;4.386;2023-04-25T11:47:38;21.40;99.90
14473;DHT22;7322;50.872;4.386;2023-04-25T11:50:06;21.40;99.90
14473;DHT22;7322;50.872;4.386;2023-04-25T11:52:40;21.40;99.90
14473;DHT22;7322;50.872;4.386;2023-04-25T11:55:19;21.40;99.90
14473;DHT22;7322;50.872;4.386;2023-04-25T11:58:04;21.30;99.90
14473;DHT22;7322;50.872;4.386;2023-04-25T12:00:33;21.30;99.90
14473;DHT22;7322;50.872;4.386;2023-04-25T12:03:10;21.20;99.90
14473;DHT22;7322;50.872;4.386;2023-04-25T12:05:36;21.20;99.90
14473;DHT22;7322;50.872;4.386;2023-04-25T12:11:21;21.30;99.90
14473;DHT22;7322;50.872;4.386;2023-04-25T12:13:52;21.30;99.90
14473;DHT22;7322;50.872;4.386;2023-04-25T12:16:20;21.30;99.90
14473;DHT22;7322;50.872;4.386;2023-04-25T12:18:47;21.20;99.90
14473;DHT22;7322;50.872;4.386;2023-04-25T12:21:20;21.10;99.90
14473;DHT22;7322;50.872;4.386;2023-04-25T12:23:48;21.10;99.90
14473;DHT22;7322;50.872;4.386;2023-04-25T12:26:18;21.10;99.90
14473;DHT22;7322;50.872;4.386;2023-04-25T12:28:46;21.00;99.90
14473;DHT22;7322;50.872;4.386;2023-04-25T12:31:14;21.00;99.90
14473;DHT22;7322;50.872;4.386;2023-04-25T12:33:45;21.00;99.90
14473;DHT22;7322;50.872;4.386;2023-04-25T12:36:14;21.00;99.90
14473;DHT22;7322;50.872;4.386;2023-04-25T12:38:42;20.90;99.90
14473;DHT22;7322;50.872;4.386;2023-04-25T12:41:10;20.90;99.90
14473;DHT22;7322;50.872;4.386;2023-04-25T12:43:39;20.90;99.90
14473;DHT22;7322;50.872;4.386;2023-04-25T12:46:19;21.00;99.90
14473;DHT22;7322;50.872;4.386;2023-04-25T12:48:53;21.00;99.90
14473;DHT22;7322;50.872;4.386;2023-04-25T12:51:24;21.00;99.90
14473;DHT22;7322;50.872;4.386;2023-04-25T12:53:53;20.90;99.90
14473;DHT22;7322;50.872;4.386;2023-04-25T12:56:21;20.90;99.90
14473;DHT22;7322;50.872;4.386;2023-04-25T12:58:54;20.90;99.90
14473;DHT22;7322;50.872;4.386;2023-04-25T13:01:22;20.90;99.90
14473;DHT22;7322;50.872;4.386;2023-04-25T13:04:03;20.90;99.90
14473;DHT22;7322;50.872;4.386;2023-04-25T13:06:32;20.90;99.90
14473;DHT22;7322;50.872;4.386;2023-04-25T13:09:08;20.80;99.90
14473;DHT22;7322;50.872;4.386;2023-04-25T13:11:36;20.80;99.90
14473;DHT22;7322;50.872;4.386;2023-04-25T13:14:04;20.80;99.90
14473;DHT22;7322;50.872;4.386;2023-04-25T13:16:33;20.80;99.90
14473;DHT22;7322;50.872;4.386;2023-04-25T13:19:08;20.80;99.90
14473;DHT22;7322;50.872;4.386;2023-04-25T13:21:37;20.80;99.90
14473;DHT22;7322;50.872;4.386;2023-04-25T13:24:05;20.80;99.90
14473;DHT22;7322;50.872;4.386;2023-04-25T13:26:32;20.80;99.90
14473;DHT22;7322;50.872;4.386;2023-04-25T13:29:21;20.80;99.90
14473;DHT22;7322;50.872;4.386;2023-04-25T13:31:58;20.80;99.90
14473;DHT22;7322;50.872;4.386;2023-04-25T13:34:36;20.80;99.90
14473;DHT22;7322;50.872;4.386;2023-04-25T13:37:07;20.80;99.90
14473;DHT22;7322;50.872;4.386;2023-04-25T13:39:35;20.80;99.90
14473;DHT22;7322;50.872;4.386;2023-04-25T13:42:05;20.70;99.90
14473;DHT22;7322;50.872;4.386;2023-04-25T13:44:33;20.70;99.90
14473;DHT22;7322;50.872;4.386;2023-04-25T13:47:00;20.70;99.90
14473;DHT22;7322;50.872;4.386;2023-04-25T13:49:29;20.60;99.90
14473;DHT22;7322;50.872;4.386;2023-04-25T13:55:27;20.60;99.90
14473;DHT22;7322;50.872;4.386;2023-04-25T13:57:55;20.50;99.90
14473;DHT22;7322;50.872;4.386;2023-04-25T14:00:36;20.50;99.90
14473;DHT22;7322;50.872;4.386;2023-04-25T14:03:05;20.40;99.90
14473;DHT22;7322;50.872;4.386;2023-04-25T14:05:47;20.40;99.90
14473;DHT22;7322;50.872;4.386;2023-04-25T14:08:25;20.40;99.90
14473;DHT22;7322;50.872;4.386;2023-04-25T14:11:13;20.40;99.90
14473;DHT22;7322;50.872;4.386;2023-04-25T14:14:03;20.30;99.90
14473;DHT22;7322;50.872;4.386;2023-04-25T14:19:50;20.20;99.90
14473;DHT22;7322;50.872;4.386;2023-04-25T14:22:23;20.10;99.90
14473;DHT22;7322;50.872;4.386;2023-04-25T14:24:51;20.10;99.90
14473;DHT22;7322;50.872;4.386;2023-04-25T14:27:42;20.10;99.90
14473;DHT22;7322;50.872;4.386;2023-04-25T14:30:45;20.20;99.90
14473;DHT22;7322;50.872;4.386;2023-04-25T14:40:03;20.20;99.90
14473;DHT22;7322;50.872;4.386;2023-04-25T14:42:33;20.30;99.90
14473;DHT22;7322;50.872;4.386;2023-04-25T14:45:26;20.30;99.90
14473;DHT22;7322;50.872;4.386;2023-04-25T14:48:03;20.40;99.90
14473;DHT22;7322;50.872;4.386;2023-04-25T14:50:31;20.30;99.90
14473;DHT22;7322;50.872;4.386;2023-04-25T14:53:30;20.30;99.90
14473;DHT22;7322;50.872;4.386;2023-04-25T14:59:15;20.40;99.90
14473;DHT22;7322;50.872;4.386;2023-04-25T15:01:44;20.40;99.90
14473;DHT22;7322;50.872;4.386;2023-04-25T15:04:13;20.40;99.90
14473;DHT22;7322;50.872;4.386;2023-04-25T15:07:05;20.40;99.90
14473;DHT22;7322;50.872;4.386;2023-04-25T15:09:35;20.50;99.90
14473;DHT22;7322;50.872;4.386;2023-04-25T15:12:16;20.50;99.90
14473;DHT22;7322;50.872;4.386;2023-04-25T15:14:52;20.50;99.90
14473;DHT22;7322;50.872;4.386;2023-04-25T15:17:37;20.40;99.90
14473;DHT22;7322;50.872;4.386;2023-04-25T15:20:16;20.40;99.90
14473;DHT22;7322;50.872;4.386;2023-04-25T15:22:45;20.40;99.90
14473;DHT22;7322;50.872;4.386;2023-04-25T15:25:15;20.40;99.90
14473;DHT22;7322;50.872;4.386;2023-04-25T15:28:00;20.50;99.90
14473;DHT22;7322;50.872;4.386;2023-04-25T15:30:29;20.50;99.90
14473;DHT22;7322;50.872;4.386;2023-04-25T15:33:06;20.50;99.90
14473;DHT22;7322;50.872;4.386;2023-04-25T15:35:49;20.50;99.90
14473;DHT22;7322;50.872;4.386;2023-04-25T15:38:30;20.60;99.90
14473;DHT22;7322;50.872;4.386;2023-04-25T15:41:06;20.60;99.90
14473;DHT22;7322;50.872;4.386;2023-04-25T15:43:39;20.60;99.90
14473;DHT22;7322;50.872;4.386;2023-04-25T15:46:30;20.60;99.90
14473;DHT22;7322;50.872;4.386;2023-04-25T15:49:04;20.60;99.90
14473;DHT22;7322;50.872;4.386;2023-04-25T15:51:39;20.60;99.90
14473;DHT22;7322;50.872;4.386;2023-04-25T15:54:18;20.60;99.90
14473;DHT22;7322;50.872;4.386;2023-04-25T15:56:53;20.50;99.90
14473;DHT22;7322;50.872;4.386;2023-04-25T15:59:22;20.50;99.90
14473;DHT22;7322;50.872;4.386;2023-04-25T16:01:55;20.40;99.90
14473;DHT22;7322;50.872;4.386;2023-04-25T16:04:42;20.50;99.90
14473;DHT22;7322;50.872;4.386;2023-04-25T16:07:14;20.40;99.90
14473;DHT22;7322;50.872;4.386;2023-04-25T16:09:42;20.40;99.90
14473;DHT22;7322;50.872;4.386;2023-04-25T16:12:12;20.40;99.90
14473;DHT22;7322;50.872;4.386;2023-04-25T16:14:40;20.50;99.90
14473;DHT22;7322;50.872;4.386;2023-04-25T16:17:31;20.40;99.90
14473;DHT22;7322;50.872;4.386;2023-04-25T16:20:03;20.50;99.90
14473;DHT22;7322;50.872;4.386;2023-04-25T16:22:34;20.50;99.90
14473;DHT22;7322;50.872;4.386;2023-04-25T16:28:28;20.50;99.90
14473;DHT22;7322;50.872;4.386;2023-04-25T16:31:08;20.50;99.90